KJSL/JSL METAR and TAF weather

Enter ICAO airport designator
Station Type Date Time Source
KJSL METAR 2019/02/20 17:00 UTC NOAA

KJSL 201700Z AUTO 18010KT 10SM CLR 24/22 A2997 RMK A01


Station Type Date Time Source
KJSL Decoded METAR 2019/02/20 17:00 UTC NOAA

Station name not available
Feb 20, 2019 - 12:00 PM EST / 2019.02.20 1700 UTC
Wind: from the S (180 degrees) at 12 MPH (10 KT):0
Visibility: 10 mile(s):0
Sky conditions: clear
Temperature: 75 F (24 C)
Dew Point: 71 F (22 C)
Relative Humidity: 88%
Pressure (altimeter): 29.97 in. Hg (1014 hPa)
ob: KJSL 201700Z AUTO 18010KT 10SM CLR 24/22 A2997 RMK A01
cycle: 17

Station Type Date Time Source
KJSL TAF UTC NOAA

Error!


Example: see airport list